createdAt,value
2019-05-11T00:00:22.558Z,1.40
2019-05-11T00:02:44.494Z,2.45
2019-05-11T00:05:06.732Z,1.75
2019-05-11T00:07:28.168Z,1.72
2019-05-11T00:09:58.276Z,2.20
2019-05-11T00:12:12.692Z,1.72
2019-05-11T00:14:34.667Z,1.62
2019-05-11T00:16:55.645Z,1.35
2019-05-11T00:19:17.619Z,1.30
2019-05-11T00:21:39.565Z,1.05
2019-05-11T00:24:01.826Z,4.00
2019-05-11T00:26:24.186Z,1.32
2019-05-11T00:28:45.633Z,1.80
2019-05-11T00:31:07.845Z,1.35
2019-05-11T00:33:29.142Z,2.15
2019-05-11T00:35:50.933Z,3.00
2019-05-11T00:38:12.351Z,1.75
2019-05-11T00:40:34.053Z,1.35
2019-05-11T00:42:55.767Z,2.60
2019-05-11T00:45:17.437Z,1.92
2019-05-11T00:47:39.282Z,1.40
2019-05-11T00:50:00.779Z,1.77
2019-05-11T00:52:22.620Z,2.67
2019-05-11T00:54:44.267Z,3.30
2019-05-11T00:57:06.504Z,2.20
2019-05-11T00:59:28.356Z,4.10
2019-05-11T01:01:50.167Z,1.50
2019-05-11T01:04:12.184Z,1.30
2019-05-11T01:06:34.591Z,1.77
2019-05-11T01:08:56.074Z,0.95
2019-05-11T01:11:18.230Z,1.67
2019-05-11T01:13:39.992Z,1.20
2019-05-11T01:16:01.739Z,1.37
2019-05-11T01:18:23.040Z,1.45
2019-05-11T01:20:44.372Z,0.80
2019-05-11T01:23:06.267Z,1.37
2019-05-11T01:25:28.228Z,3.90
2019-05-11T01:27:50.053Z,0.88
2019-05-11T01:30:11.521Z,1.32
2019-05-11T01:32:32.896Z,1.65
2019-05-11T01:34:54.822Z,1.25
2019-05-11T01:37:17.178Z,0.75
2019-05-11T01:39:39.485Z,1.27
2019-05-11T01:42:01.409Z,1.20
2019-05-11T01:44:23.341Z,0.70
2019-05-11T01:46:45.060Z,1.22
2019-05-11T01:49:07.261Z,1.25
2019-05-11T01:51:29.783Z,1.55
2019-05-11T01:53:51.239Z,1.65
2019-05-11T01:56:12.816Z,1.60
2019-05-11T01:58:34.342Z,1.00
2019-05-11T02:00:55.662Z,0.80
2019-05-11T02:03:17.477Z,1.50
2019-05-11T02:05:39.607Z,1.35
2019-05-11T02:08:01.999Z,1.00
2019-05-11T02:10:23.256Z,1.10
2019-05-11T02:12:45.136Z,2.40
2019-05-11T02:15:07.180Z,1.00
2019-05-11T02:17:28.700Z,0.82
2019-05-11T02:19:50.183Z,0.98
2019-05-11T02:22:11.657Z,0.80
2019-05-11T02:24:33.663Z,0.60
2019-05-11T02:26:55.325Z,0.90
2019-05-11T02:29:17.678Z,1.22
2019-05-11T02:31:38.846Z,0.95
2019-05-11T02:34:00.541Z,0.85
2019-05-11T02:36:21.973Z,1.37
2019-05-11T02:38:43.912Z,0.75
2019-05-11T02:41:05.977Z,1.07
2019-05-11T02:43:27.426Z,0.60
2019-05-11T02:45:48.938Z,0.75
2019-05-11T02:48:11.037Z,0.85
2019-05-11T02:50:32.020Z,0.82
2019-05-11T02:52:53.528Z,1.27
2019-05-11T02:55:15.243Z,0.98
2019-05-11T02:57:36.903Z,0.98
2019-05-11T02:59:58.238Z,1.67
2019-05-11T03:02:19.646Z,0.82
2019-05-11T03:04:41.595Z,0.98
2019-05-11T03:07:03.320Z,1.77
2019-05-11T03:09:24.873Z,0.93
2019-05-11T03:11:55.493Z,0.98
2019-05-11T03:14:09.771Z,0.65
2019-05-11T03:16:31.928Z,0.57
2019-05-11T03:18:53.693Z,0.50
2019-05-11T03:21:15.573Z,1.07
2019-05-11T03:23:38.087Z,1.10
2019-05-11T03:26:00.021Z,0.55
2019-05-11T03:28:21.325Z,0.68
2019-05-11T03:30:43.567Z,1.07
2019-05-11T03:33:04.882Z,0.82
2019-05-11T03:35:27.000Z,0.80
2019-05-11T03:37:48.837Z,0.98
2019-05-11T03:40:10.774Z,2.12
2019-05-11T03:42:32.925Z,0.82
2019-05-11T03:44:54.563Z,0.82
2019-05-11T03:47:16.634Z,0.70
2019-05-11T03:49:38.208Z,0.82
2019-05-11T03:52:00.081Z,0.80
2019-05-11T03:54:22.018Z,1.32
2019-05-11T03:56:43.772Z,0.85
2019-05-11T03:59:05.649Z,0.70
2019-05-11T04:01:27.218Z,0.88
2019-05-11T04:03:49.008Z,1.10
2019-05-11T04:06:10.983Z,1.05
2019-05-11T04:08:32.657Z,1.72
2019-05-11T04:10:54.855Z,1.65
2019-05-11T04:13:16.889Z,0.85
2019-05-11T04:15:38.790Z,0.47
2019-05-11T04:18:00.824Z,0.82
2019-05-11T04:20:22.582Z,0.85
2019-05-11T04:22:44.423Z,0.90
2019-05-11T04:25:06.133Z,1.47
2019-05-11T04:27:28.021Z,0.50
2019-05-11T04:29:49.607Z,1.05
2019-05-11T04:32:11.196Z,0.72
2019-05-11T04:34:33.525Z,0.85
2019-05-11T04:36:55.412Z,0.57
2019-05-11T04:39:16.833Z,0.40
2019-05-11T04:41:38.992Z,0.70
2019-05-11T04:44:01.265Z,0.93
2019-05-11T04:46:22.915Z,0.47
2019-05-11T04:48:44.371Z,2.08
2019-05-11T04:51:06.087Z,0.70
2019-05-11T04:53:27.821Z,0.40
2019-05-11T04:55:49.795Z,0.45
2019-05-11T04:58:11.430Z,0.68
2019-05-11T05:00:33.537Z,0.50
2019-05-11T05:02:55.470Z,1.05
2019-05-11T05:05:17.372Z,1.45
2019-05-11T05:07:48.076Z,0.78
2019-05-11T05:10:01.874Z,2.67
2019-05-11T05:12:23.818Z,1.12
2019-05-11T05:14:44.965Z,0.42
2019-05-11T05:17:07.178Z,0.70
2019-05-11T05:19:28.501Z,0.40
2019-05-11T05:21:50.604Z,0.50
2019-05-11T05:24:12.206Z,0.50
2019-05-11T05:26:33.966Z,0.68
2019-05-11T05:28:55.144Z,0.40
2019-05-11T05:31:17.306Z,0.42
2019-05-11T05:33:38.669Z,0.45
2019-05-11T05:36:00.614Z,1.75
2019-05-11T05:38:22.292Z,0.75
2019-05-11T05:40:43.772Z,0.85
2019-05-11T05:43:05.535Z,1.80
2019-05-11T05:45:27.799Z,0.50
2019-05-11T05:47:49.209Z,1.20
2019-05-11T05:50:10.888Z,0.50
2019-05-11T05:52:32.552Z,0.40
2019-05-11T05:54:54.844Z,0.60
2019-05-11T05:57:16.633Z,0.72
2019-05-11T05:59:38.480Z,0.70
2019-05-11T06:02:00.118Z,1.57
2019-05-11T06:04:22.045Z,0.40
2019-05-11T06:06:44.846Z,0.70
2019-05-11T06:09:06.250Z,0.85
2019-05-11T06:11:27.602Z,1.65
2019-05-11T06:13:49.488Z,0.40
2019-05-11T06:16:11.441Z,1.20
2019-05-11T06:18:33.531Z,0.50
2019-05-11T06:20:55.423Z,0.62
2019-05-11T06:23:17.189Z,0.50
2019-05-11T06:25:39.188Z,0.68
2019-05-11T06:28:00.706Z,0.33
2019-05-11T06:30:22.070Z,0.50
2019-05-11T06:32:43.581Z,0.37
2019-05-11T06:35:05.635Z,0.47
2019-05-11T06:37:27.287Z,0.90
2019-05-11T06:39:48.951Z,0.50
2019-05-11T06:42:10.552Z,0.40
2019-05-11T06:44:32.356Z,0.88
2019-05-11T06:46:53.936Z,1.12
2019-05-11T06:49:15.344Z,0.40
2019-05-11T06:51:40.349Z,0.78
2019-05-11T06:54:00.837Z,1.02
2019-05-11T06:56:22.772Z,0.53
2019-05-11T06:58:45.615Z,0.62
2019-05-11T07:01:07.683Z,0.70
2019-05-11T07:03:29.403Z,2.55
2019-05-11T07:05:51.036Z,1.77
2019-05-11T07:08:13.386Z,1.85
2019-05-11T07:10:35.516Z,1.72
2019-05-11T07:12:57.966Z,1.00
2019-05-11T07:15:20.292Z,2.08
2019-05-11T07:17:41.582Z,5.37
2019-05-11T07:20:07.722Z,1.35
2019-05-11T07:22:29.863Z,5.85
2019-05-11T07:24:51.636Z,2.77
2019-05-11T07:27:13.540Z,3.55
2019-05-11T07:29:35.462Z,3.83
2019-05-11T07:32:03.139Z,3.98
2019-05-11T07:34:21.140Z,1.47
2019-05-11T07:36:43.083Z,3.42
2019-05-11T07:41:32.189Z,1.77
2019-05-11T07:43:54.126Z,2.25
2019-05-11T07:46:28.949Z,1.50
2019-05-11T07:48:51.143Z,1.35
2019-05-11T07:51:12.480Z,4.37
2019-05-11T07:53:33.971Z,0.82
2019-05-11T07:55:57.753Z,2.98
2019-05-11T08:00:18.594Z,1.57
2019-05-11T08:02:40.638Z,3.75
2019-05-11T08:05:02.369Z,2.47
2019-05-11T08:07:25.140Z,2.02
2019-05-11T08:09:48.267Z,1.45
2019-05-11T08:12:10.720Z,1.67
2019-05-11T08:14:32.558Z,4.83
2019-05-11T08:16:54.545Z,1.77
2019-05-11T08:19:18.527Z,2.47
2019-05-11T08:21:39.445Z,3.55
2019-05-11T08:24:00.928Z,0.90
2019-05-11T08:26:22.819Z,4.78
2019-05-11T08:28:44.507Z,1.17
2019-05-11T08:31:08.040Z,1.17
2019-05-11T08:33:30.008Z,2.58
2019-05-11T08:35:51.939Z,1.00
2019-05-11T08:38:13.776Z,2.00
2019-05-11T08:40:37.913Z,1.37
2019-05-11T08:42:58.842Z,4.60
2019-05-11T08:45:24.780Z,1.37
2019-05-11T08:47:44.435Z,1.20
2019-05-11T08:50:08.054Z,0.93
2019-05-11T08:52:30.282Z,1.27
2019-05-11T08:54:52.332Z,10.00
2019-05-11T08:57:14.030Z,1.02
2019-05-11T08:59:37.936Z,0.93
2019-05-11T09:01:59.046Z,4.53
2019-05-11T09:04:20.671Z,1.02
2019-05-11T09:06:42.108Z,1.00
2019-05-11T09:09:04.142Z,3.05
2019-05-11T09:11:28.200Z,3.77
2019-05-11T09:13:50.188Z,4.60
2019-05-11T09:16:11.767Z,2.70
2019-05-11T09:18:33.566Z,2.42
2019-05-11T09:20:57.731Z,2.47
2019-05-11T09:23:33.680Z,8.15
2019-05-11T09:25:42.255Z,2.08
2019-05-11T09:28:04.293Z,3.17
2019-05-11T09:30:28.637Z,2.22
2019-05-11T09:32:49.493Z,4.12
2019-05-11T09:35:11.488Z,1.80
2019-05-11T09:37:33.632Z,3.35
2019-05-11T09:39:58.180Z,2.65
2019-05-11T09:42:19.222Z,3.50
2019-05-11T09:44:41.013Z,3.85
2019-05-11T09:47:02.982Z,2.05
2019-05-11T09:49:24.388Z,3.33
2019-05-11T09:51:48.253Z,2.17
2019-05-11T09:54:09.579Z,1.10
2019-05-11T09:56:31.649Z,1.72
2019-05-11T09:58:53.031Z,4.47
2019-05-11T10:01:14.761Z,9.23
2019-05-11T10:03:38.670Z,4.72
2019-05-11T10:06:00.515Z,7.30
2019-05-11T10:08:21.997Z,4.67
2019-05-11T10:10:43.693Z,2.67
2019-05-11T10:13:05.382Z,3.42
2019-05-11T10:15:28.750Z,14.05
2019-05-11T10:17:50.728Z,8.65
2019-05-11T10:20:11.859Z,8.40
2019-05-11T10:22:34.027Z,5.15
2019-05-11T10:24:58.060Z,4.20
2019-05-11T10:27:19.210Z,4.80
2019-05-11T10:29:40.932Z,4.37
2019-05-11T10:32:02.698Z,5.50
2019-05-11T10:34:24.482Z,5.00
2019-05-11T10:36:48.615Z,6.78
2019-05-11T10:39:10.150Z,7.40
2019-05-11T10:41:32.116Z,7.62
2019-05-11T10:43:53.856Z,6.17
2019-05-11T10:46:22.967Z,6.45
2019-05-11T10:48:39.843Z,5.60
2019-05-11T10:51:01.737Z,6.50
2019-05-11T10:53:23.049Z,8.70
2019-05-11T10:55:44.807Z,5.60
2019-05-11T10:58:08.635Z,5.50
2019-05-11T11:00:31.106Z,9.15
2019-05-11T11:02:53.767Z,11.50
2019-05-11T11:05:15.078Z,7.10
2019-05-11T11:07:38.422Z,13.13
2019-05-11T11:10:01.245Z,8.53
2019-05-11T11:12:27.764Z,11.57
2019-05-11T11:14:48.793Z,13.58
2019-05-11T11:17:11.105Z,20.35
2019-05-11T11:19:33.025Z,13.40
2019-05-11T11:21:54.634Z,14.95
2019-05-11T11:24:17.919Z,11.93
2019-05-11T11:26:39.601Z,14.25
2019-05-11T11:29:01.627Z,14.25
2019-05-11T11:31:23.668Z,15.40
2019-05-11T11:33:45.229Z,14.53
2019-05-11T11:36:08.510Z,12.98
2019-05-11T11:38:30.215Z,8.15
2019-05-11T11:41:04.635Z,9.20
2019-05-11T11:43:28.714Z,10.43
2019-05-11T11:45:49.923Z,9.75
2019-05-11T11:48:11.450Z,10.43
2019-05-11T11:50:33.026Z,7.42
2019-05-11T11:52:57.687Z,9.28
2019-05-11T11:55:18.686Z,8.98
2019-05-11T11:57:48.439Z,7.47
2019-05-11T12:00:09.398Z,8.80
2019-05-11T12:02:30.901Z,8.58
2019-05-11T12:04:53.816Z,8.83
2019-05-11T12:07:17.960Z,7.65
2019-05-11T12:09:38.792Z,4.45
2019-05-11T12:12:00.946Z,12.53
2019-05-11T12:14:21.897Z,12.05
2019-05-11T12:16:44.196Z,12.68
2019-05-11T12:19:05.724Z,12.90
2019-05-11T12:21:27.804Z,11.22
2019-05-11T12:23:49.102Z,12.85
2019-05-11T12:26:12.001Z,14.68
2019-05-11T12:28:33.286Z,10.93
2019-05-11T12:30:58.572Z,8.45
2019-05-11T12:33:20.761Z,5.60
2019-05-11T12:35:42.505Z,11.78
2019-05-11T12:38:04.239Z,10.50
2019-05-11T12:40:28.159Z,3.92
2019-05-11T12:42:49.252Z,5.17
2019-05-11T12:45:11.245Z,3.95
2019-05-11T12:47:32.926Z,4.03
2019-05-11T12:49:54.661Z,9.30
2019-05-11T12:52:18.275Z,6.12
2019-05-11T12:54:39.536Z,2.77
2019-05-11T12:57:01.526Z,4.42
2019-05-11T12:59:22.678Z,4.22
2019-05-11T13:01:44.791Z,3.52
2019-05-11T13:04:08.832Z,5.25
2019-05-11T13:06:30.199Z,2.62
2019-05-11T13:08:51.711Z,2.22
2019-05-11T13:11:13.713Z,2.33
2019-05-11T13:13:35.041Z,3.30
2019-05-11T13:15:58.563Z,4.72
2019-05-11T13:18:20.723Z,1.85
2019-05-11T13:20:42.005Z,3.25
2019-05-11T13:23:04.003Z,2.67
2019-05-11T13:25:28.112Z,3.70
2019-05-11T13:27:49.435Z,6.95
2019-05-11T13:30:11.347Z,4.60
2019-05-11T13:32:33.629Z,5.70
2019-05-11T13:34:55.455Z,3.10
2019-05-11T13:37:18.754Z,3.00
2019-05-11T13:39:41.275Z,6.95
2019-05-11T13:42:03.223Z,3.85
2019-05-11T13:44:24.689Z,2.80
2019-05-11T13:46:49.063Z,2.50
2019-05-11T13:49:10.940Z,5.47
2019-05-11T13:51:33.865Z,4.25
2019-05-11T13:53:55.439Z,4.58
2019-05-11T13:56:18.941Z,4.05
2019-05-11T13:58:39.888Z,4.92
2019-05-11T14:01:01.703Z,8.98
2019-05-11T14:03:23.715Z,10.00
2019-05-11T14:05:47.902Z,7.42
2019-05-11T14:08:08.970Z,3.75
2019-05-11T14:10:30.531Z,7.30
2019-05-11T14:12:52.098Z,5.65
2019-05-11T14:15:14.828Z,4.83
2019-05-11T14:17:38.032Z,3.95
2019-05-11T14:19:59.870Z,6.87
2019-05-11T14:22:21.800Z,4.42
2019-05-11T14:24:43.972Z,4.35
2019-05-11T14:27:05.490Z,6.47
2019-05-11T14:29:28.547Z,8.33
2019-05-11T14:31:50.737Z,4.72
2019-05-11T14:34:12.560Z,4.15
2019-05-11T14:36:34.669Z,8.30
2019-05-11T14:38:57.685Z,5.47
2019-05-11T14:41:18.762Z,7.53
2019-05-11T14:43:40.131Z,2.92
2019-05-11T14:46:02.070Z,3.22
2019-05-11T14:48:27.076Z,7.30
2019-05-11T14:50:48.950Z,7.40
2019-05-11T14:53:10.044Z,8.15
2019-05-11T14:55:32.976Z,8.68
2019-05-11T14:57:54.748Z,6.35
2019-05-11T15:00:18.542Z,6.45
2019-05-11T15:02:39.851Z,8.15
2019-05-11T15:05:01.526Z,12.98
2019-05-11T15:07:22.657Z,9.43
2019-05-11T15:09:44.956Z,7.45
2019-05-11T15:12:08.611Z,5.85
2019-05-11T15:14:29.403Z,7.33
2019-05-11T15:16:50.830Z,7.22
2019-05-11T15:19:12.889Z,8.28
2019-05-11T15:21:33.970Z,12.98
2019-05-11T15:23:57.967Z,7.12
2019-05-11T15:26:19.524Z,8.03
2019-05-11T15:28:41.395Z,14.10
2019-05-11T15:31:03.138Z,7.87
2019-05-11T15:33:24.338Z,8.65
2019-05-11T15:35:47.832Z,7.20
2019-05-11T15:38:10.336Z,4.42
2019-05-11T15:40:32.452Z,3.72
2019-05-11T15:42:54.861Z,2.50
2019-05-11T15:45:18.595Z,4.87
2019-05-11T15:47:39.711Z,4.95
2019-05-11T15:50:00.815Z,7.42
2019-05-11T15:52:22.882Z,4.80
2019-05-11T15:54:44.914Z,2.75
2019-05-11T15:57:08.395Z,6.62
2019-05-11T15:59:30.826Z,6.87
2019-05-11T16:01:54.566Z,12.25
2019-05-11T16:04:17.964Z,4.25
2019-05-11T16:06:39.057Z,6.12
2019-05-11T16:09:01.377Z,3.33
2019-05-11T16:11:23.337Z,8.63
2019-05-11T16:13:45.531Z,6.65
2019-05-11T16:16:07.309Z,5.33
2019-05-11T16:18:28.956Z,3.85
2019-05-11T16:20:50.538Z,6.28
2019-05-11T16:23:13.040Z,8.48
2019-05-11T16:25:34.838Z,8.90
2019-05-11T16:27:56.375Z,3.85
2019-05-11T16:30:21.388Z,4.97
2019-05-11T16:32:41.030Z,4.25
2019-05-11T16:35:03.584Z,6.67
2019-05-11T16:37:24.944Z,4.12
2019-05-11T16:39:49.475Z,3.30
2019-05-11T16:42:10.242Z,10.45
2019-05-11T16:44:31.926Z,6.47
2019-05-11T16:46:54.091Z,3.92
2019-05-11T16:49:26.227Z,14.35
2019-05-11T16:51:39.510Z,6.00
2019-05-11T16:54:01.387Z,5.00
2019-05-11T16:56:23.137Z,5.15
2019-05-11T16:58:44.898Z,1.52
2019-05-11T17:01:08.412Z,7.17
2019-05-11T17:03:29.790Z,5.33
2019-05-11T17:05:51.852Z,8.00
2019-05-11T17:08:13.727Z,8.20
2019-05-11T17:10:35.313Z,14.03
2019-05-11T17:12:58.092Z,11.55
2019-05-11T17:15:33.373Z,6.85
2019-05-11T17:17:55.245Z,4.85
2019-05-11T17:20:18.690Z,14.58
2019-05-11T17:22:39.662Z,11.95
2019-05-11T17:25:01.394Z,12.55
2019-05-11T17:27:23.060Z,11.85
2019-05-11T17:29:48.796Z,7.33
2019-05-11T17:32:09.140Z,4.05
2019-05-11T17:34:31.160Z,6.35
2019-05-11T17:36:52.085Z,8.33
2019-05-11T17:39:14.713Z,10.40
2019-05-11T17:41:38.761Z,3.98
2019-05-11T17:44:01.197Z,2.92
2019-05-11T17:46:22.287Z,7.17
2019-05-11T17:48:44.446Z,8.05
2019-05-11T17:51:20.576Z,7.80
2019-05-11T17:53:30.996Z,9.10
2019-05-11T17:55:53.429Z,4.55
2019-05-11T17:58:15.228Z,3.75
2019-05-11T18:00:39.236Z,3.40
2019-05-11T18:03:00.181Z,2.92
2019-05-11T18:05:21.888Z,9.43
2019-05-11T18:07:44.703Z,3.20
2019-05-11T18:10:08.142Z,5.85
2019-05-11T18:12:30.670Z,2.62
2019-05-11T18:14:51.858Z,6.55
2019-05-11T18:17:14.115Z,4.00
2019-05-11T18:19:35.525Z,6.60
2019-05-11T18:21:57.784Z,2.98
2019-05-11T18:24:19.583Z,4.42
2019-05-11T18:26:40.886Z,7.37
2019-05-11T18:29:02.904Z,9.68
2019-05-11T18:31:25.026Z,9.25
2019-05-11T18:33:48.749Z,13.68
2019-05-11T18:36:13.643Z,18.65
2019-05-11T18:38:35.570Z,22.15
2019-05-11T18:40:58.049Z,23.12
2019-05-11T18:43:20.305Z,25.20
2019-05-11T18:45:44.268Z,27.67
2019-05-11T18:48:07.873Z,30.17
2019-05-11T18:50:30.866Z,27.73
2019-05-11T18:52:52.372Z,19.27
2019-05-11T18:55:13.888Z,26.10
2019-05-11T18:57:38.201Z,31.40
2019-05-11T18:59:58.821Z,22.13
2019-05-11T19:02:21.375Z,17.07
2019-05-11T19:04:43.541Z,20.17
2019-05-11T19:07:14.181Z,12.05
2019-05-11T19:09:28.429Z,15.00
2019-05-11T19:11:50.452Z,18.35
2019-05-11T19:14:11.915Z,12.88
2019-05-11T19:16:33.860Z,8.68
2019-05-11T19:18:55.844Z,10.28
2019-05-11T19:21:18.022Z,5.22
2019-05-11T19:23:39.663Z,10.20
2019-05-11T19:26:01.818Z,7.30
2019-05-11T19:28:23.711Z,15.15
2019-05-11T19:30:45.851Z,8.30
2019-05-11T19:33:10.753Z,9.00
2019-05-11T19:35:30.187Z,8.73
2019-05-11T19:37:52.274Z,5.00
2019-05-11T19:40:14.184Z,15.85
2019-05-11T19:42:37.907Z,10.13
2019-05-11T19:44:59.708Z,4.53
2019-05-11T19:47:24.762Z,9.75
2019-05-11T19:49:47.922Z,5.87
2019-05-11T19:52:09.559Z,7.70
2019-05-11T19:54:30.828Z,5.35
2019-05-11T19:56:52.819Z,6.78
2019-05-11T19:59:14.773Z,4.17
2019-05-11T20:01:37.818Z,6.30
2019-05-11T20:03:59.403Z,10.23
2019-05-11T20:06:21.718Z,5.08
2019-05-11T20:08:43.282Z,6.55
2019-05-11T20:11:05.024Z,6.37
2019-05-11T20:13:28.386Z,7.97
2019-05-11T20:15:50.209Z,8.03
2019-05-11T20:18:12.402Z,6.20
2019-05-11T20:20:34.839Z,7.47
2019-05-11T20:22:58.450Z,4.20
2019-05-11T20:25:20.015Z,6.67
2019-05-11T20:27:41.594Z,8.08
2019-05-11T20:30:03.317Z,5.62
2019-05-11T20:32:24.387Z,7.15
2019-05-11T20:34:48.308Z,4.53
2019-05-11T20:37:11.521Z,6.78
2019-05-11T20:39:33.189Z,5.60
2019-05-11T20:41:55.535Z,4.45
2019-05-11T20:44:19.311Z,4.70
2019-05-11T20:46:40.883Z,5.08
2019-05-11T20:49:01.981Z,4.92
2019-05-11T20:51:34.186Z,2.42
2019-05-11T20:53:48.932Z,5.45
2019-05-11T20:56:10.290Z,4.97
2019-05-11T20:58:31.891Z,4.05
2019-05-11T21:00:53.853Z,7.45
2019-05-11T21:03:15.744Z,7.67
2019-05-11T21:05:38.267Z,3.87
2019-05-11T21:08:00.419Z,4.30
2019-05-11T21:10:22.193Z,7.35
2019-05-11T21:12:44.121Z,8.58
2019-05-11T21:15:06.001Z,3.87
2019-05-11T21:17:28.073Z,8.53
2019-05-11T21:19:49.569Z,7.47
2019-05-11T21:22:11.533Z,3.10
2019-05-11T21:24:33.408Z,5.12
2019-05-11T21:26:55.328Z,2.77
2019-05-11T21:29:18.686Z,4.47
2019-05-11T21:31:40.721Z,3.40
2019-05-11T21:34:02.623Z,4.55
2019-05-11T21:36:24.605Z,4.17
2019-05-11T21:38:48.197Z,2.72
2019-05-11T21:41:09.294Z,4.45
2019-05-11T21:43:30.945Z,5.20
2019-05-11T21:45:53.512Z,5.45
2019-05-11T21:48:15.357Z,4.05
2019-05-11T21:50:37.011Z,8.83
2019-05-11T21:52:59.158Z,6.03
2019-05-11T21:55:21.617Z,2.15
2019-05-11T21:57:43.554Z,3.00
2019-05-11T22:00:04.949Z,3.02
2019-05-11T22:02:28.581Z,2.75
2019-05-11T22:04:49.483Z,2.72
2019-05-11T22:07:11.355Z,6.47
2019-05-11T22:09:32.879Z,7.08
2019-05-11T22:11:54.475Z,5.00
2019-05-11T22:14:16.427Z,3.65
2019-05-11T22:16:38.910Z,3.58
2019-05-11T22:19:01.489Z,4.28
2019-05-11T22:21:23.174Z,1.98
2019-05-11T22:23:47.460Z,2.85
2019-05-11T22:26:07.899Z,3.40
2019-05-11T22:28:29.949Z,4.00
2019-05-11T22:30:52.267Z,2.58
2019-05-11T22:33:13.197Z,2.35
2019-05-11T22:35:35.008Z,3.85
2019-05-11T22:37:57.778Z,3.15
2019-05-11T22:40:18.932Z,4.28
2019-05-11T22:42:41.015Z,2.62
2019-05-11T22:45:02.872Z,3.40
2019-05-11T22:47:24.622Z,3.20
2019-05-11T22:49:49.654Z,3.10
2019-05-11T22:52:09.956Z,1.98
2019-05-11T22:54:31.261Z,5.35
2019-05-11T22:56:52.419Z,4.00
2019-05-11T22:59:14.026Z,2.65
2019-05-11T23:01:37.812Z,2.27
2019-05-11T23:03:59.846Z,3.33
2019-05-11T23:06:22.129Z,2.10
2019-05-11T23:08:44.185Z,4.37
2019-05-11T23:11:10.305Z,1.47
2019-05-11T23:13:30.322Z,1.65
2019-05-11T23:15:52.169Z,4.25
2019-05-11T23:18:14.120Z,3.25
2019-05-11T23:20:35.750Z,2.02
2019-05-11T23:23:01.314Z,2.22
2019-05-11T23:25:21.038Z,2.58
2019-05-11T23:27:43.369Z,2.60
2019-05-11T23:30:04.873Z,2.55
2019-05-11T23:32:26.739Z,2.27
2019-05-11T23:34:49.047Z,2.60
2019-05-11T23:37:10.873Z,2.47
2019-05-11T23:39:32.465Z,2.00
2019-05-11T23:41:53.990Z,3.00
2019-05-11T23:44:17.964Z,2.42
2019-05-11T23:46:39.202Z,2.35
2019-05-11T23:49:01.442Z,2.95
2019-05-11T23:51:23.009Z,2.87
2019-05-11T23:53:47.516Z,2.33
2019-05-11T23:56:08.358Z,1.30
2019-05-11T23:58:30.461Z,2.08
